Time;durP1;ratioP1;P1;durP2;ratioP2;P2;SDS_P1;SDS_P2;PMS_P1;PMS_P2;Temp;Humidity;BMP_temperature;BMP_pressure;BME280_temperature;BME280_humidity;BME280_pressure;Samples;Min_cycle;Max_cycle;Signal;HPM_P1;HPM_P2
2023/06/18 00:00:13;;;;;;;6.88;5.72;;;;;;;-145.41;100.00;58600.66;5033839;28;20087;-73
2023/06/18 00:02:39;;;;;;;7.20;5.35;;;;;;;-145.41;100.00;58600.66;5036422;28;20051;-72
2023/06/18 00:05:05;;;;;;;9.40;5.80;;;;;;;-145.41;100.00;58600.66;5033969;28;20484;-72
2023/06/18 00:07:30;;;;;;;11.85;9.00;;;;;;;-145.41;100.00;58600.66;5022206;28;20033;-72
2023/06/18 00:09:57;;;;;;;9.05;8.15;;;;;;;-145.41;100.00;58600.66;5037323;28;20108;-72
2023/06/18 00:12:23;;;;;;;8.43;7.50;;;;;;;-145.41;100.00;58600.66;5040412;28;20103;-72
2023/06/18 00:14:48;;;;;;;9.05;7.82;;;;;;;-145.41;100.00;58600.66;5019857;28;20033;-72
2023/06/18 00:17:13;;;;;;;8.63;7.10;;;;;;;-145.41;100.00;58600.66;5035860;28;20029;-72
2023/06/18 00:19:39;;;;;;;7.13;6.43;;;;;;;-145.41;100.00;58600.66;5030833;28;20030;-72
2023/06/18 00:22:05;;;;;;;8.10;6.03;;;;;;;-145.41;100.00;58600.66;5040396;28;20043;-72
2023/06/18 00:24:31;;;;;;;7.88;6.40;;;;;;;-145.41;100.00;58600.66;5038812;28;20129;-73
2023/06/18 00:26:56;;;;;;;8.05;6.07;;;;;;;-145.41;100.00;58600.66;5041734;28;20073;-72
2023/06/18 00:29:21;;;;;;;7.47;6.70;;;;;;;-145.41;100.00;58600.66;5010847;28;20042;-72
2023/06/18 00:31:47;;;;;;;8.80;7.18;;;;;;;-145.41;100.00;58600.66;5030448;28;20033;-72
2023/06/18 00:34:12;;;;;;;11.57;8.90;;;;;;;-145.41;100.00;58600.66;5033807;28;20029;-72
2023/06/18 00:36:43;;;;;;;11.43;9.00;;;;;;;-145.41;100.00;58600.66;5025397;28;20045;-72
2023/06/18 00:39:08;;;;;;;7.22;6.32;;;;;;;-145.41;100.00;58600.66;5029042;28;20492;-72
2023/06/18 00:41:34;;;;;;;7.55;5.47;;;;;;;-145.41;100.00;58600.66;5038561;28;20036;-72
2023/06/18 00:44:00;;;;;;;5.75;4.40;;;;;;;-145.41;100.00;58600.66;5033226;28;20483;-72
2023/06/18 00:46:26;;;;;;;5.93;5.20;;;;;;;-145.41;100.00;58600.66;5019201;28;20032;-72
2023/06/18 00:48:56;;;;;;;6.03;5.28;;;;;;;-145.41;100.00;58600.66;5026345;28;20029;-72
2023/06/18 00:51:22;;;;;;;8.20;7.07;;;;;;;-145.41;100.00;58600.66;5026522;28;20396;-72
2023/06/18 00:53:48;;;;;;;6.47;5.88;;;;;;;-145.41;100.00;58600.66;5028312;28;20034;-72
2023/06/18 00:56:14;;;;;;;6.82;6.13;;;;;;;-145.41;100.00;58600.66;5031133;28;20049;-72
2023/06/18 00:58:39;;;;;;;6.28;5.35;;;;;;;-145.41;100.00;58600.66;5026251;28;20480;-73
2023/06/18 01:01:08;;;;;;;7.38;5.80;;;;;;;-145.41;100.00;58600.66;5035148;28;20045;-71
2023/06/18 01:03:34;;;;;;;7.40;5.65;;;;;;;-145.41;100.00;58600.66;5038719;28;20037;-72
2023/06/18 01:06:04;;;;;;;6.13;4.75;;;;;;;-145.41;100.00;58600.66;5030340;28;20033;-72
2023/06/18 01:08:33;;;;;;;6.03;5.43;;;;;;;-145.41;100.00;58600.66;5019364;28;20083;-72
2023/06/18 01:11:04;;;;;;;8.65;6.35;;;;;;;-145.41;100.00;58600.66;5010880;28;20053;-72
2023/06/18 01:13:33;;;;;;;5.97;5.13;;;;;;;-145.41;100.00;58600.66;5029806;28;20029;-72
2023/06/18 01:16:05;;;;;;;6.82;5.15;;;;;;;-145.41;100.00;58600.66;5037922;28;20588;-72
2023/06/18 01:18:36;;;;;;;5.32;4.40;;;;;;;-145.41;100.00;58600.66;5023832;28;20438;-72
2023/06/18 01:21:09;;;;;;;6.30;4.72;;;;;;;-145.41;100.00;58600.66;5038693;28;20026;-72
2023/06/18 01:23:49;;;;;;;5.80;4.93;;;;;;;-145.41;100.00;58600.66;5035636;28;20036;-73
2023/06/18 01:26:20;;;;;;;5.30;4.68;;;;;;;-145.41;100.00;58600.66;5015538;28;20030;-73
2023/06/18 01:28:47;;;;;;;5.47;4.50;;;;;;;-145.41;100.00;58600.66;5039179;28;20044;-73
2023/06/18 01:31:12;;;;;;;6.13;5.53;;;;;;;-145.41;100.00;58600.66;5038912;28;20044;-73
2023/06/18 01:33:39;;;;;;;5.40;4.55;;;;;;;-145.41;100.00;58600.66;5039598;28;20128;-73
2023/06/18 01:36:10;;;;;;;4.57;4.00;;;;;;;-145.41;100.00;58600.66;4998717;28;20060;-72
2023/06/18 01:38:46;;;;;;;5.32;4.57;;;;;;;-145.41;100.00;58600.66;5037777;28;20057;-73
2023/06/18 01:41:18;;;;;;;5.78;4.25;;;;;;;-145.41;100.00;58600.66;5033750;28;20108;-73
2023/06/18 01:43:54;;;;;;;6.80;5.60;;;;;;;-145.41;100.00;58600.66;5032995;28;20404;-72
2023/06/18 01:46:22;;;;;;;5.18;4.30;;;;;;;-145.41;100.00;58600.66;5026692;28;20037;-72
2023/06/18 01:48:53;;;;;;;5.07;3.92;;;;;;;-145.41;100.00;58600.66;5026876;28;20076;-73
2023/06/18 01:51:20;;;;;;;4.65;3.83;;;;;;;-145.41;100.00;58600.66;5029297;28;20399;-72
2023/06/18 01:53:47;;;;;;;4.03;2.95;;;;;;;-145.41;100.00;58600.66;5024687;28;20103;-72
2023/06/18 01:56:13;;;;;;;3.97;3.15;;;;;;;-145.41;100.00;58600.66;5030483;28;20040;-72
2023/06/18 01:58:42;;;;;;;4.40;3.55;;;;;;;-145.41;100.00;58600.66;5026142;28;20539;-72
2023/06/18 02:01:09;;;;;;;4.50;2.40;;;;;;;-145.41;100.00;58600.66;5012239;28;20021;-72
2023/06/18 02:03:35;;;;;;;4.05;3.13;;;;;;;-145.41;100.00;58600.66;5015054;28;20116;-72
2023/06/18 02:06:01;;;;;;;3.42;2.88;;;;;;;-145.41;100.00;58600.66;5036494;28;20045;-72
2023/06/18 02:08:26;;;;;;;4.85;3.22;;;;;;;-145.41;100.00;58600.66;5017169;28;20033;-72
2023/06/18 02:10:53;;;;;;;3.40;2.67;;;;;;;-145.41;100.00;58600.66;5031124;28;20033;-72
2023/06/18 02:13:18;;;;;;;4.55;2.80;;;;;;;-145.41;100.00;58600.66;5022339;28;20033;-72
2023/06/18 02:15:44;;;;;;;3.67;2.58;;;;;;;-145.41;100.00;58600.66;5019504;28;20130;-72
2023/06/18 02:18:11;;;;;;;6.35;4.05;;;;;;;-145.41;100.00;58600.66;5038996;28;20036;-72
2023/06/18 02:20:40;;;;;;;4.82;3.72;;;;;;;-145.41;100.00;58600.66;5037876;28;20037;-72
2023/06/18 02:23:06;;;;;;;4.57;4.05;;;;;;;-145.41;100.00;58600.66;5035889;28;20391;-72
2023/06/18 02:25:32;;;;;;;5.05;3.35;;;;;;;-145.41;100.00;58600.66;5017987;28;20025;-72
2023/06/18 02:27:59;;;;;;;5.55;4.07;;;;;;;-145.41;100.00;58600.66;5024571;28;20452;-72
2023/06/18 02:30:25;;;;;;;5.65;4.72;;;;;;;-145.41;100.00;58600.66;5042140;28;20029;-72
2023/06/18 02:32:52;;;;;;;4.50;3.45;;;;;;;-145.41;100.00;58600.66;5036637;28;20495;-72
2023/06/18 02:35:18;;;;;;;4.88;3.67;;;;;;;-145.41;100.00;58600.66;5038022;28;20045;-72
2023/06/18 02:37:44;;;;;;;7.50;4.75;;;;;;;-145.41;100.00;58600.66;5042981;28;20038;-72
2023/06/18 02:40:13;;;;;;;4.93;3.88;;;;;;;-145.41;100.00;58600.66;5024263;28;20032;-73
2023/06/18 02:42:46;;;;;;;4.40;3.30;;;;;;;-145.41;100.00;58600.66;5035939;28;20029;-72
2023/06/18 02:45:13;;;;;;;5.63;3.90;;;;;;;-145.41;100.00;58600.66;5022287;28;20083;-72
2023/06/18 02:47:38;;;;;;;4.43;3.17;;;;;;;-145.41;100.00;58600.66;5047090;28;20386;-72
2023/06/18 02:50:05;;;;;;;4.35;3.13;;;;;;;-145.41;100.00;58600.66;5024788;28;20120;-72
2023/06/18 02:52:31;;;;;;;4.53;3.67;;;;;;;-145.41;100.00;58600.66;5021996;28;20522;-72
2023/06/18 02:54:56;;;;;;;4.35;3.47;;;;;;;-145.41;100.00;58600.66;5037553;28;20045;-72
2023/06/18 02:57:21;;;;;;;6.78;3.78;;;;;;;-145.41;100.00;58600.66;5039467;28;20036;-72
2023/06/18 02:59:47;;;;;;;5.85;4.10;;;;;;;-145.41;100.00;58600.66;5016692;28;20021;-72
2023/06/18 03:02:13;;;;;;;5.85;4.10;;;;;;;-145.41;100.00;58600.66;5018659;28;20425;-72
2023/06/18 03:04:38;;;;;;;4.72;3.80;;;;;;;-145.41;100.00;58600.66;5017787;28;20042;-72
2023/06/18 03:07:04;;;;;;;4.10;3.20;;;;;;;-145.41;100.00;58600.66;5021064;28;20426;-71
2023/06/18 03:09:30;;;;;;;6.40;4.40;;;;;;;-145.41;100.00;58600.66;5018287;28;20068;-72
2023/06/18 03:11:55;;;;;;;5.78;3.70;;;;;;;-145.41;100.00;58600.66;5029404;28;20061;-72
2023/06/18 03:14:22;;;;;;;3.60;2.85;;;;;;;-145.41;100.00;58600.66;5021406;28;20032;-72
2023/06/18 03:16:48;;;;;;;4.32;3.00;;;;;;;-145.41;100.00;58600.66;5025799;28;20120;-72
2023/06/18 03:19:15;;;;;;;5.75;2.90;;;;;;;-145.41;100.00;58600.66;5022043;28;20021;-72
2023/06/18 03:21:41;;;;;;;3.25;2.35;;;;;;;-145.41;100.00;58600.66;5018498;28;20025;-72
2023/06/18 03:24:07;;;;;;;3.95;3.00;;;;;;;-145.41;100.00;58600.66;5020586;28;20044;-72
2023/06/18 03:26:36;;;;;;;4.95;3.88;;;;;;;-145.41;100.00;58600.66;5018745;28;20030;-72
2023/06/18 03:29:05;;;;;;;5.07;3.67;;;;;;;-145.41;100.00;58600.66;5022205;28;20025;-72
2023/06/18 03:31:31;;;;;;;6.40;4.22;;;;;;;-145.41;100.00;58600.66;5022454;28;20032;-72
2023/06/18 03:34:01;;;;;;;7.30;4.40;;;;;;;-145.41;100.00;58600.66;5001541;28;20499;-72
2023/06/18 03:36:29;;;;;;;18.92;5.97;;;;;;;-145.41;100.00;58600.66;5017512;28;20033;-72
2023/06/18 03:38:55;;;;;;;10.27;5.80;;;;;;;-145.41;100.00;58600.66;5037723;28;20508;-72
2023/06/18 03:41:21;;;;;;;11.35;6.28;;;;;;;-145.41;100.00;58600.66;5043960;28;20095;-72
2023/06/18 03:43:47;;;;;;;7.47;5.88;;;;;;;-145.41;100.00;58600.66;5021097;28;20116;-72
2023/06/18 03:46:13;;;;;;;7.80;5.47;;;;;;;-145.41;100.00;58600.66;5019729;28;20064;-72
2023/06/18 03:48:41;;;;;;;6.78;5.50;;;;;;;-145.41;100.00;58600.66;5024859;28;20025;-72
2023/06/18 03:51:07;;;;;;;6.63;4.68;;;;;;;-145.41;100.00;58600.66;5032009;28;20076;-72
2023/06/18 03:53:37;;;;;;;9.00;6.47;;;;;;;-145.41;100.00;58600.66;5023789;28;20034;-72
2023/06/18 03:56:04;;;;;;;7.13;4.78;;;;;;;-145.41;100.00;58600.66;5018079;28;20025;-72
2023/06/18 03:58:30;;;;;;;8.10;4.68;;;;;;;-145.41;100.00;58600.66;5021736;28;20066;-71
2023/06/18 04:00:56;;;;;;;6.30;4.72;;;;;;;-145.41;100.00;58600.66;5017283;28;20037;-72
2023/06/18 04:03:23;;;;;;;5.55;4.55;;;;;;;-145.41;100.00;58600.66;5018641;28;20103;-71
2023/06/18 04:05:49;;;;;;;7.43;5.55;;;;;;;-145.41;100.00;58600.66;5039691;28;20068;-71
2023/06/18 04:08:14;;;;;;;5.35;4.35;;;;;;;-145.41;100.00;58600.66;5018460;28;20032;-71
2023/06/18 04:10:40;;;;;;;7.25;5.65;;;;;;;-145.41;100.00;58600.66;5014941;28;20030;-71
2023/06/18 04:13:06;;;;;;;7.22;5.03;;;;;;;-145.41;100.00;58600.66;5002431;28;20037;-71
2023/06/18 04:15:32;;;;;;;6.25;5.57;;;;;;;-145.41;100.00;58600.66;5027119;28;20123;-71
2023/06/18 04:17:58;;;;;;;6.07;5.45;;;;;;;-145.41;100.00;58600.66;5023485;28;20510;-71
2023/06/18 04:20:23;;;;;;;6.93;5.15;;;;;;;-145.41;100.00;58600.66;5036218;28;20092;-71
2023/06/18 04:22:49;;;;;;;7.80;5.88;;;;;;;-145.41;100.00;58600.66;5033062;28;20464;-71
2023/06/18 04:25:16;;;;;;;8.13;6.20;;;;;;;-145.41;100.00;58600.66;5016222;28;20029;-71
2023/06/18 04:27:43;;;;;;;6.13;5.35;;;;;;;-145.41;100.00;58600.66;5025560;28;20083;-71
2023/06/18 04:30:09;;;;;;;8.63;7.63;;;;;;;-145.41;100.00;58600.66;5002568;28;20458;-71
2023/06/18 04:32:34;;;;;;;9.40;8.50;;;;;;;-145.41;100.00;58600.66;5034170;28;20546;-71
2023/06/18 04:35:01;;;;;;;8.40;6.10;;;;;;;-145.41;100.00;58600.66;5023806;28;20079;-71
2023/06/18 04:37:30;;;;;;;6.60;5.90;;;;;;;-145.41;100.00;58600.66;5021292;28;20580;-72
2023/06/18 04:39:56;;;;;;;6.95;5.80;;;;;;;-145.41;100.00;58600.66;5020129;28;20037;-70
2023/06/18 04:42:22;;;;;;;7.50;6.70;;;;;;;-145.41;100.00;58600.66;5036815;28;20033;-71
2023/06/18 04:44:47;;;;;;;9.20;7.00;;;;;;;-145.41;100.00;58600.66;5032752;28;20057;-71
2023/06/18 04:47:13;;;;;;;7.82;7.03;;;;;;;-145.41;100.00;58600.66;5014759;28;20022;-72
2023/06/18 04:49:38;;;;;;;12.05;8.45;;;;;;;-145.41;100.00;58600.66;5014427;28;20456;-71
2023/06/18 04:52:05;;;;;;;14.15;12.52;;;;;;;-145.41;100.00;58600.66;5015617;28;20025;-71
2023/06/18 04:54:31;;;;;;;12.57;10.65;;;;;;;-145.41;100.00;58600.66;5014340;28;20523;-72
2023/06/18 04:56:57;;;;;;;14.45;12.93;;;;;;;-145.41;100.00;58600.66;5008741;28;20038;-71
2023/06/18 04:59:24;;;;;;;14.23;11.38;;;;;;;-145.41;100.00;58600.66;5016362;28;20094;-71
2023/06/18 05:01:50;;;;;;;14.65;12.27;;;;;;;-145.41;100.00;58600.66;5016119;28;20030;-71
2023/06/18 05:04:16;;;;;;;14.00;9.80;;;;;;;-145.41;100.00;58600.66;5018527;28;20041;-71
2023/06/18 05:06:41;;;;;;;10.90;8.77;;;;;;;-145.41;100.00;58600.66;5018604;28;20396;-71
2023/06/18 05:09:08;;;;;;;12.23;8.60;;;;;;;-145.41;100.00;58600.66;5020012;28;20057;-71
2023/06/18 05:11:34;;;;;;;9.27;8.30;;;;;;;-145.41;100.00;58600.66;5016151;28;20408;-71
2023/06/18 05:14:00;;;;;;;12.38;9.63;;;;;;;-145.41;100.00;58600.66;5009293;28;20021;-71
2023/06/18 05:16:27;;;;;;;13.43;12.07;;;;;;;-145.41;100.00;58600.66;5022345;28;20092;-70
2023/06/18 05:18:53;;;;;;;12.25;10.52;;;;;;;-145.41;100.00;58600.66;5018177;28;20057;-72
2023/06/18 05:21:19;;;;;;;9.65;8.65;;;;;;;-145.41;100.00;58600.66;5027778;28;20035;-73
2023/06/18 05:23:44;;;;;;;13.75;12.02;;;;;;;-145.41;100.00;58600.66;5021849;28;20029;-73
2023/06/18 05:26:10;;;;;;;14.23;12.73;;;;;;;-145.41;100.00;58600.66;5018235;28;20040;-73
2023/06/18 05:28:36;;;;;;;13.80;11.48;;;;;;;-145.41;100.00;58600.66;5046120;28;20041;-73
2023/06/18 05:31:01;;;;;;;14.07;12.45;;;;;;;-145.41;100.00;58600.66;5034541;28;20091;-73
2023/06/18 05:33:28;;;;;;;12.73;9.82;;;;;;;-145.41;100.00;58600.66;5016142;28;20105;-73
2023/06/18 05:35:59;;;;;;;13.07;9.48;;;;;;;-145.41;100.00;58600.66;5018611;28;20144;-72
2023/06/18 05:38:24;;;;;;;10.07;8.20;;;;;;;-145.41;100.00;58600.66;5016069;28;20547;-72
2023/06/18 05:40:49;;;;;;;12.40;11.10;;;;;;;-145.41;100.00;58600.66;5022013;28;20107;-72
2023/06/18 05:43:16;;;;;;;9.88;8.88;;;;;;;-145.41;100.00;58600.66;5026775;28;20260;-72
2023/06/18 05:45:46;;;;;;;13.23;11.05;;;;;;;-145.41;100.00;58600.66;5017034;28;20040;-72
2023/06/18 05:48:14;;;;;;;13.20;11.10;;;;;;;-145.41;100.00;58600.66;5020754;28;20021;-72
2023/06/18 05:50:49;;;;;;;11.63;9.82;;;;;;;-145.41;100.00;58600.66;5005289;28;20187;-72
2023/06/18 05:53:15;;;;;;;12.32;10.10;;;;;;;-145.41;100.00;58600.66;5016455;28;20682;-72
2023/06/18 05:55:41;;;;;;;13.68;10.20;;;;;;;-145.41;100.00;58600.66;5021452;28;20068;-72
2023/06/18 05:58:07;;;;;;;13.18;9.55;;;;;;;-145.41;100.00;58600.66;5006388;28;20140;-72
2023/06/18 06:00:32;;;;;;;14.20;9.23;;;;;;;-145.41;100.00;58600.66;5012233;28;20083;-72
2023/06/18 06:02:58;;;;;;;10.35;8.13;;;;;;;-145.41;100.00;58600.66;5028813;28;20033;-72
2023/06/18 06:05:23;;;;;;;11.48;8.57;;;;;;;-145.41;100.00;58600.66;5022395;28;20520;-72
2023/06/18 06:07:49;;;;;;;10.65;9.50;;;;;;;-145.41;100.00;58600.66;5018366;28;20033;-72
2023/06/18 06:10:17;;;;;;;12.30;9.15;;;;;;;-145.41;100.00;58600.66;5045005;28;20113;-73
2023/06/18 06:12:43;;;;;;;11.27;10.10;;;;;;;-145.41;100.00;58600.66;5004922;28;20389;-72
2023/06/18 06:15:09;;;;;;;12.45;10.00;;;;;;;-145.41;100.00;58600.66;5019735;28;20055;-72
2023/06/18 06:17:36;;;;;;;12.55;9.30;;;;;;;-145.41;100.00;58600.66;5008895;28;20037;-73
2023/06/18 06:20:01;;;;;;;12.15;9.20;;;;;;;-145.41;100.00;58600.66;5020491;28;20108;-72
2023/06/18 06:22:27;;;;;;;10.55;9.45;;;;;;;-145.41;100.00;58600.66;5021739;28;20503;-73
2023/06/18 06:24:52;;;;;;;11.00;9.75;;;;;;;-145.41;100.00;58600.66;5024502;28;20033;-72
2023/06/18 06:27:18;;;;;;;10.45;9.35;;;;;;;-145.41;100.00;58600.66;5019623;28;20026;-72
2023/06/18 06:29:44;;;;;;;11.68;9.05;;;;;;;-145.41;100.00;58600.66;5037015;28;20033;-73
2023/06/18 06:32:09;;;;;;;10.40;8.70;;;;;;;-145.41;100.00;58600.66;5023841;28;20096;-74
2023/06/18 06:34:35;;;;;;;9.88;8.15;;;;;;;-145.41;100.00;58600.66;5016252;28;20514;-74
2023/06/18 06:37:01;;;;;;;9.68;8.32;;;;;;;-145.41;100.00;58600.66;5018315;28;20124;-73
2023/06/18 06:39:27;;;;;;;9.70;8.55;;;;;;;-145.41;100.00;58600.66;5019296;28;20030;-73
2023/06/18 06:41:53;;;;;;;11.13;8.20;;;;;;;-145.41;100.00;58600.66;5022755;28;20160;-73
2023/06/18 06:44:18;;;;;;;12.10;8.50;;;;;;;-145.41;100.00;58600.66;5031570;28;20139;-74
2023/06/18 06:46:50;;;;;;;9.82;8.15;;;;;;;-145.41;100.00;58600.66;5018486;28;20543;-73
2023/06/18 06:49:29;;;;;;;11.77;8.45;;;;;;;-145.41;100.00;58600.66;5008096;28;20484;-73
2023/06/18 06:52:24;;;;;;;8.82;7.20;;;;;;;-145.41;100.00;58600.66;5026076;28;20029;-73
2023/06/18 06:54:51;;;;;;;9.85;7.68;;;;;;;-145.41;100.00;58600.66;5017312;28;20124;-73
2023/06/18 06:57:16;;;;;;;10.40;7.95;;;;;;;-145.41;100.00;58600.66;5037628;28;20034;-73
2023/06/18 06:59:41;;;;;;;9.93;7.28;;;;;;;-145.41;100.00;58600.66;5017490;28;20639;-73
2023/06/18 07:02:07;;;;;;;8.85;6.82;;;;;;;-145.41;100.00;58600.66;5034830;28;20045;-73
2023/06/18 07:04:32;;;;;;;9.48;7.28;;;;;;;-145.41;100.00;58600.66;5032122;28;20091;-73
2023/06/18 07:06:57;;;;;;;8.00;6.75;;;;;;;-145.41;100.00;58600.66;5019599;28;20045;-73
2023/06/18 07:09:23;;;;;;;8.18;6.57;;;;;;;-145.41;100.00;58600.66;5037670;28;20108;-73
2023/06/18 07:11:48;;;;;;;9.68;7.30;;;;;;;-145.41;100.00;58600.66;5036579;28;20500;-73
2023/06/18 07:14:15;;;;;;;9.55;6.93;;;;;;;-145.41;100.00;58600.66;5030255;28;20427;-73
2023/06/18 07:16:40;;;;;;;8.38;6.85;;;;;;;-145.41;100.00;58600.66;5020245;28;20407;-73
2023/06/18 07:19:05;;;;;;;8.27;7.20;;;;;;;-145.41;100.00;58600.66;5035726;28;20044;-73
2023/06/18 07:21:31;;;;;;;7.30;6.32;;;;;;;-145.41;100.00;58600.66;5045016;28;20460;-74
2023/06/18 07:23:56;;;;;;;7.75;6.65;;;;;;;-145.41;100.00;58600.66;5035226;28;20048;-73
2023/06/18 07:26:22;;;;;;;7.60;6.45;;;;;;;-145.41;100.00;58600.66;5038944;28;20037;-73
2023/06/18 07:28:47;;;;;;;7.60;6.57;;;;;;;-145.41;100.00;58600.66;5030527;28;20064;-74
2023/06/18 07:31:12;;;;;;;11.20;7.10;;;;;;;-145.41;100.00;58600.66;5039359;28;20036;-73
2023/06/18 07:33:37;;;;;;;8.93;6.30;;;;;;;-145.41;100.00;58600.66;5042128;28;20030;-73
2023/06/18 07:36:03;;;;;;;7.40;6.38;;;;;;;-145.41;100.00;58600.66;5035439;28;20082;-73
2023/06/18 07:38:28;;;;;;;10.52;6.75;;;;;;;-145.41;100.00;58600.66;5042120;28;20030;-73
2023/06/18 07:40:54;;;;;;;7.30;5.88;;;;;;;-145.41;100.00;58600.66;5040966;28;20032;-73
2023/06/18 07:43:19;;;;;;;8.55;6.10;;;;;;;-145.41;100.00;58600.66;5043757;28;20083;-73
2023/06/18 07:45:45;;;;;;;10.88;7.20;;;;;;;-145.41;100.00;58600.66;5045200;28;20045;-74
2023/06/18 07:48:10;;;;;;;7.10;6.30;;;;;;;-145.41;100.00;58600.66;5018178;28;20054;-73
2023/06/18 07:50:36;;;;;;;8.18;6.35;;;;;;;-145.41;100.00;58600.66;5033590;28;20064;-73
2023/06/18 07:53:01;;;;;;;8.40;6.65;;;;;;;-145.41;100.00;58600.66;5024875;28;20030;-73
2023/06/18 07:55:27;;;;;;;7.57;6.60;;;;;;;-145.41;100.00;58600.66;5043959;28;20407;-73
2023/06/18 07:57:52;;;;;;;8.63;6.97;;;;;;;-145.41;100.00;58600.66;5039348;28;20037;-73
2023/06/18 08:00:18;;;;;;;7.40;6.05;;;;;;;-145.41;100.00;58600.66;5037917;28;20507;-73
2023/06/18 08:02:44;;;;;;;6.90;5.15;;;;;;;-145.41;100.00;58600.66;5033512;28;20038;-73
2023/06/18 08:05:10;;;;;;;7.32;5.68;;;;;;;-145.41;100.00;58600.66;5027671;28;20045;-73
2023/06/18 08:07:36;;;;;;;8.23;6.15;;;;;;;-145.41;100.00;58600.66;5019076;28;20033;-73
2023/06/18 08:10:01;;;;;;;6.50;5.40;;;;;;;-145.41;100.00;58600.66;5043109;28;20063;-73
2023/06/18 08:12:27;;;;;;;6.38;4.90;;;;;;;-145.41;100.00;58600.66;5033647;28;20037;-73
2023/06/18 08:14:52;;;;;;;6.45;5.72;;;;;;;-145.41;100.00;58600.66;5036334;28;20049;-74
2023/06/18 08:17:17;;;;;;;6.22;5.15;;;;;;;-145.41;100.00;58600.66;5033624;28;20042;-74
2023/06/18 08:19:45;;;;;;;7.40;6.18;;;;;;;-145.41;100.00;58600.66;5032007;28;20038;-74
2023/06/18 08:22:11;;;;;;;6.45;4.93;;;;;;;-145.41;100.00;58600.66;5029876;28;20037;-73
2023/06/18 08:24:36;;;;;;;7.90;5.80;;;;;;;-145.41;100.00;58600.66;5039002;28;20120;-73
2023/06/18 08:27:02;;;;;;;8.45;5.22;;;;;;;-145.41;100.00;58600.66;5030093;28;20167;-73
2023/06/18 08:29:27;;;;;;;6.53;5.32;;;;;;;-145.41;100.00;58600.66;5036460;28;20063;-74
2023/06/18 08:31:53;;;;;;;6.63;5.13;;;;;;;-145.41;100.00;58600.66;5040481;28;20041;-73
2023/06/18 08:34:18;;;;;;;6.78;5.20;;;;;;;-145.41;100.00;58600.66;5032127;28;20040;-74
2023/06/18 08:36:46;;;;;;;6.97;5.80;;;;;;;-145.41;100.00;58600.66;5038839;28;20063;-73
2023/06/18 08:39:12;;;;;;;5.93;4.90;;;;;;;-145.41;100.00;58600.66;5041784;28;20082;-73
2023/06/18 08:41:40;;;;;;;7.50;5.05;;;;;;;-145.41;100.00;58600.66;5020129;28;20032;-73
2023/06/18 08:44:05;;;;;;;7.88;4.75;;;;;;;-145.41;100.00;58600.66;5033088;28;20080;-73
2023/06/18 08:46:34;;;;;;;7.05;4.90;;;;;;;-145.41;100.00;58600.66;5009613;28;20021;-74
2023/06/18 08:49:00;;;;;;;8.00;5.38;;;;;;;-145.41;100.00;58600.66;5032054;28;20071;-73
2023/06/18 08:51:26;;;;;;;6.45;5.07;;;;;;;-145.41;100.00;58600.66;5035244;28;20064;-73
2023/06/18 08:54:15;;;;;;;6.18;4.88;;;;;;;-145.41;100.00;58600.66;5016048;28;20033;-73
2023/06/18 08:56:49;;;;;;;8.82;5.07;;;;;;;-145.41;100.00;58600.66;5034477;28;20510;-74
2023/06/18 08:59:15;;;;;;;6.80;5.30;;;;;;;-145.41;100.00;58600.66;5027649;28;20041;-74
2023/06/18 09:01:46;;;;;;;5.60;4.43;;;;;;;-145.41;100.00;58600.66;5016565;28;20040;-74
2023/06/18 09:04:13;;;;;;;5.93;5.00;;;;;;;-145.41;100.00;58600.66;5024940;28;20037;-73
2023/06/18 09:06:39;;;;;;;7.28;4.80;;;;;;;-145.41;100.00;58600.66;5018873;28;20034;-73
2023/06/18 09:09:07;;;;;;;6.65;4.60;;;;;;;-145.41;100.00;58600.66;5011098;28;20037;-74
2023/06/18 09:11:33;;;;;;;5.43;4.75;;;;;;;-145.41;100.00;58600.66;5038083;28;20040;-74
2023/06/18 09:13:59;;;;;;;8.15;4.97;;;;;;;-145.41;100.00;58600.66;5034526;28;20146;-73
2023/06/18 09:16:25;;;;;;;5.72;5.03;;;;;;;-145.41;100.00;58600.66;5015685;28;20033;-74
2023/06/18 09:18:50;;;;;;;5.97;4.57;;;;;;;-145.41;100.00;58600.66;5030105;28;20500;-73
2023/06/18 09:21:38;;;;;;;8.65;5.60;;;;;;;-145.41;100.00;58600.66;5039263;28;20045;-74
2023/06/18 09:24:09;;;;;;;6.55;5.07;;;;;;;-145.41;100.00;58600.66;5033320;28;20029;-73
2023/06/18 09:26:35;;;;;;;6.60;5.28;;;;;;;-145.41;100.00;58600.66;5033392;28;20488;-74
2023/06/18 09:29:05;;;;;;;5.40;4.60;;;;;;;-145.41;100.00;58600.66;5018591;28;20042;-73
2023/06/18 09:31:31;;;;;;;7.32;5.38;;;;;;;-145.41;100.00;58600.66;5042223;28;20037;-73
2023/06/18 09:33:56;;;;;;;6.47;5.15;;;;;;;-145.41;100.00;58600.66;5035124;28;20091;-73
2023/06/18 09:36:24;;;;;;;6.18;4.93;;;;;;;-145.41;100.00;58600.66;5033824;28;20513;-74
2023/06/18 09:38:53;;;;;;;6.72;4.75;;;;;;;-145.41;100.00;58600.66;5036660;28;20045;-74
2023/06/18 09:41:18;;;;;;;8.68;6.30;;;;;;;-145.41;100.00;58600.66;5042781;28;20048;-73
2023/06/18 09:43:47;;;;;;;6.47;5.25;;;;;;;-145.41;100.00;58600.66;5034571;28;20520;-74
2023/06/18 09:46:14;;;;;;;7.55;5.55;;;;;;;-145.41;100.00;58600.66;5042170;28;20143;-73
2023/06/18 09:48:44;;;;;;;6.25;5.28;;;;;;;-145.41;100.00;58600.66;5026564;28;20025;-72
2023/06/18 09:51:10;;;;;;;6.65;4.57;;;;;;;-145.41;100.00;58600.66;5046399;28;20032;-73
2023/06/18 09:53:36;;;;;;;5.60;4.60;;;;;;;-145.41;100.00;58600.66;5022745;28;20029;-74
2023/06/18 09:56:16;;;;;;;6.22;4.93;;;;;;;-145.41;100.00;58600.66;5041103;28;20082;-73
2023/06/18 10:01:10;;;;;;;6.18;4.95;;;;;;;-145.41;100.00;58600.66;4978918;28;20051;-76
2023/06/18 10:03:36;;;;;;;6.38;4.53;;;;;;;-145.41;100.00;58600.66;4986333;28;20053;-76
2023/06/18 10:06:13;;;;;;;6.72;5.40;;;;;;;-145.41;100.00;58600.66;4983633;28;20382;-76
2023/06/18 10:08:42;;;;;;;5.80;5.20;;;;;;;-145.41;100.00;58600.66;4985083;28;20037;-76
2023/06/18 10:11:09;;;;;;;8.23;5.03;;;;;;;-145.41;100.00;58600.66;4983176;28;20125;-76
2023/06/18 10:13:40;;;;;;;6.20;4.80;;;;;;;-145.41;100.00;58600.66;4986044;28;20411;-76
2023/06/18 10:16:06;;;;;;;7.25;5.03;;;;;;;-145.41;100.00;58600.66;4982120;28;20539;-77
2023/06/18 10:18:32;;;;;;;5.30;4.80;;;;;;;-145.41;100.00;58600.66;4985296;28;20484;-77
2023/06/18 10:21:04;;;;;;;7.43;4.72;;;;;;;-145.41;100.00;58600.66;4988389;28;20089;-77
2023/06/18 10:23:32;;;;;;;4.97;4.47;;;;;;;-145.41;100.00;58600.66;4983826;28;20097;-77
2023/06/18 10:25:58;;;;;;;9.27;5.45;;;;;;;-145.41;100.00;58600.66;4985035;28;20045;-76
2023/06/18 10:28:24;;;;;;;6.10;5.00;;;;;;;-145.41;100.00;58600.66;4988170;28;20035;-76
2023/06/18 10:30:50;;;;;;;5.53;4.93;;;;;;;-145.41;100.00;58600.66;4984358;28;20447;-76
2023/06/18 10:33:16;;;;;;;5.80;4.63;;;;;;;-145.41;100.00;58600.66;4985167;28;20049;-76
2023/06/18 10:35:43;;;;;;;9.25;4.55;;;;;;;-145.41;100.00;58600.66;4981273;28;20035;-76
2023/06/18 10:38:09;;;;;;;7.13;4.57;;;;;;;-145.41;100.00;58600.66;4987928;28;20452;-76
2023/06/18 10:40:38;;;;;;;6.70;4.95;;;;;;;-145.41;100.00;58600.66;4985411;28;20038;-76
2023/06/18 10:43:08;;;;;;;5.53;4.53;;;;;;;-145.41;100.00;58600.66;4983216;28;20508;-76
2023/06/18 10:45:34;;;;;;;5.72;4.40;;;;;;;-145.41;100.00;58600.66;4978142;28;20047;-76
2023/06/18 10:48:18;;;;;;;5.63;4.55;;;;;;;-145.41;100.00;58600.66;4982529;28;20049;-76
2023/06/18 10:51:17;;;;;;;4.97;4.38;;;;;;;-145.41;100.00;58600.66;4982647;28;20062;-76
2023/06/18 10:53:46;;;;;;;5.28;4.30;;;;;;;-145.41;100.00;58600.66;4981289;28;20022;-76
2023/06/18 10:56:16;;;;;;;5.53;4.35;;;;;;;-145.41;100.00;58600.66;4983362;28;20026;-76
2023/06/18 10:58:42;;;;;;;7.35;4.45;;;;;;;-145.41;100.00;58600.66;4981116;28;20080;-76
2023/06/18 11:01:22;;;;;;;7.40;4.90;;;;;;;-145.41;100.00;58600.66;4990228;28;20042;-76
2023/06/18 11:03:59;;;;;;;5.20;4.70;;;;;;;-145.41;100.00;58600.66;4980385;28;20026;-76
2023/06/18 11:06:29;;;;;;;5.63;4.55;;;;;;;-145.41;100.00;58600.66;4983571;28;20073;-76
2023/06/18 11:08:55;;;;;;;4.60;4.00;;;;;;;-145.41;100.00;58600.66;4982137;28;20808;-76